All
Barimunya Airport (Barimunya, Western Australia) BYP Weather
|
Barimunya, Western Australia (BYP / YBRY)
Clear skies
Windy |
|
71 °F |
BYP Terminal Area Forecast
| Date | Time (AWST) | Flight Rules | Wind Dir. | Speed | Type | Height AGL (ft) | Visibility | Remarks | ||||||
|---|---|---|---|---|---|---|---|---|---|---|---|---|---|---|
Recent BYP METAR history
| Date | Time (AWST) | Flight Rules | Wind Dir. | Speed | Type | Height AGL (ft) | Visibility | Temp (°C) | Temp (°F) | Dew Point (°C) | Dew Point (°F) | Rel. Humid. | Pressure | Density Altitude | Remarks |
|---|---|---|---|---|---|---|---|---|---|---|---|---|---|---|---|
| 09-May | 03:00PM | VFR | 120° | 14 kt | 10000 meters | 22° | 71° | -5° | 23° | 16% | 1019 mb | 3,146 ft | |||
| 09-May | 02:00PM | VFR | 110° | 13 kt | 10000 meters | 22° | 71° | -5° | 23° | 16% | 1020 mb | 3,117 ft | |||
| 09-May | 01:00PM | VFR | 110° | 12 kt | 10000 meters | 22° | 71° | -4° | 24° | 17% | 1020 mb | 3,117 ft | |||
| 09-May | 12:00PM | VFR | 110° | 13 kt | 10000 meters | 21° | 69° | -3° | 26° | 20% | 1021 mb | 2,967 ft | |||
| 09-May | 11:00AM | VFR | 100° | 15 kt | 10000 meters | 19° | 66° | -2° | 28° | 24% | 1022 mb | 2,698 ft | |||
| 09-May | 10:00AM | VFR | 100° | 14 kt | 10000 meters | 19° | 66° | -1° | 30° | 26% | 1023 mb | 2,668 ft | |||
| 09-May | 09:00AM | VFR | 100° | 13 kt | 10000 meters | 17° | 62° | -1° | 30° | 29% | 1024 mb | 2,398 ft | |||
| 09-May | 08:00AM | VFR | 110° | 13 kt | 10000 meters | 16° | 60° | -2° | 28° | 29% | 1024 mb | 2,278 ft | |||
| 09-May | 07:00AM | VFR | 110° | 13 kt | 10000 meters | 14° | 57° | -2° | 28° | 33% | 1023 mb | 2,068 ft | |||
| 09-May | 06:00AM | VFR | 110° | 13 kt | 10000 meters | 14° | 57° | -1° | 30° | 36% | 1023 mb | 2,068 ft | |||
| 09-May | 05:00AM | VFR | 110° | 13 kt | 10000 meters | 14° | 57° | 0° | 32° | 38% | 1022 mb | 2,098 ft | |||
| 09-May | 04:00AM | VFR | 110° | 11 kt | 10000 meters | 15° | 59° | 1° | 33° | 39% | 1022 mb | 2,218 ft | |||
| 09-May | 03:00AM | VFR | 110° | 12 kt | 10000 meters | 16° | 60° | 1° | 33° | 36% | 1022 mb | 2,338 ft | |||
| 09-May | 02:00AM | VFR | 110° | 12 kt | 10000 meters | 16° | 60° | 1° | 33° | 36% | 1022 mb | 2,338 ft | |||
| 09-May | 01:00AM | VFR | 110° | 13 kt | 10000 meters | 17° | 62° | 1° | 33° | 34% | 1022 mb | 2,458 ft | |||
| 09-May | 12:00AM | VFR | 100° | 12 kt | 10000 meters | 18° | 64° | 0° | 32° | 30% | 1023 mb | 2,548 ft | |||
| 08-May | 11:00PM | VFR | 110° | 13 kt | 10000 meters | 18° | 64° | 1° | 33° | 32% | 1023 mb | 2,548 ft | |||
| 08-May | 10:00PM | VFR | 110° | 12 kt | 10000 meters | 19° | 66° | 0° | 32° | 28% | 1023 mb | 2,668 ft | |||
| 08-May | 09:00PM | VFR | 120° | 11 kt | 10000 meters | 19° | 66° | 0° | 32° | 28% | 1023 mb | 2,668 ft | |||
| 08-May | 08:00PM | VFR | 130° | 11 kt | 10000 meters | 20° | 68° | -1° | 30° | 24% | 1022 mb | 2,818 ft | |||
| 08-May | 07:00PM | VFR | 120° | 9 kt | 10000 meters | 20° | 68° | -2° | 28° | 23% | 1021 mb | 2,847 ft | |||
| 08-May | 06:00PM | VFR | 110° | 11 kt | 10000 meters | 21° | 69° | -2° | 28° | 21% | 1021 mb | 2,967 ft | |||
| 08-May | 05:00PM | VFR | 120° | 14 kt | 10000 meters | 22° | 71° | -1° | 30° | 21% | 1020 mb | 3,117 ft | |||
| 08-May | 04:00PM | VFR | 120° | 13 kt | 10000 meters | 23° | 73° | -1° | 30° | 20% | 1020 mb | 3,237 ft |
Login
| Your browser is unsupported. upgrade your browser |
